createdAt,value
2023-04-26T00:00:49.962Z,7.93
2023-04-26T00:05:49.986Z,7.81
2023-04-26T00:10:49.720Z,7.82
2023-04-26T00:15:52.706Z,7.71
2023-04-26T00:20:49.599Z,7.42
2023-04-26T00:25:49.564Z,7.59
2023-04-26T00:30:49.465Z,7.60
2023-04-26T00:35:49.445Z,7.45
2023-04-26T00:40:49.340Z,7.59
2023-04-26T00:45:49.335Z,7.59
2023-04-26T00:50:49.209Z,7.34
2023-04-26T00:55:49.345Z,7.34
2023-04-26T01:00:49.161Z,7.47
2023-04-26T01:05:49.055Z,7.35
2023-04-26T01:10:48.939Z,7.38
2023-04-26T01:15:52.186Z,7.24
2023-04-26T01:20:48.972Z,7.08
2023-04-26T01:25:48.874Z,7.29
2023-04-26T01:30:48.945Z,7.23
2023-04-26T01:35:48.664Z,7.17
2023-04-26T01:40:48.622Z,7.01
2023-04-26T01:45:48.533Z,7.12
2023-04-26T01:50:48.441Z,6.84
2023-04-26T01:55:48.391Z,7.01
2023-04-26T02:00:48.321Z,6.86
2023-04-26T02:05:48.311Z,6.83
2023-04-26T02:10:48.178Z,6.51
2023-04-26T02:15:51.236Z,6.43
2023-04-26T02:20:48.039Z,6.16
2023-04-26T02:25:48.697Z,6.33
2023-04-26T02:30:47.910Z,6.41
2023-04-26T02:35:47.940Z,6.35
2023-04-26T02:40:47.970Z,6.18
2023-04-26T02:45:47.819Z,5.92
2023-04-26T02:50:47.651Z,5.78
2023-04-26T02:55:47.624Z,5.57
2023-04-26T03:00:47.519Z,5.46
2023-04-26T03:05:47.544Z,5.16
2023-04-26T03:10:47.423Z,4.69
2023-04-26T03:15:50.410Z,4.26
2023-04-26T03:20:47.352Z,3.90
2023-04-26T03:25:47.293Z,3.90
2023-04-26T03:30:47.206Z,3.76
2023-04-26T03:35:47.340Z,3.70
2023-04-26T03:40:47.010Z,3.61
2023-04-26T03:45:46.982Z,3.80
2023-04-26T03:50:46.906Z,3.68
2023-04-26T03:55:46.865Z,3.65
2023-04-26T04:00:46.815Z,3.94
2023-04-26T04:05:46.786Z,4.10
2023-04-26T04:10:46.684Z,4.03
2023-04-26T04:15:49.735Z,4.19
2023-04-26T04:20:46.632Z,4.44
2023-04-26T04:25:46.589Z,5.22
2023-04-26T04:30:46.363Z,6.04
2023-04-26T04:35:46.344Z,6.69
2023-04-26T04:40:46.235Z,7.32
2023-04-26T04:45:46.281Z,7.96
2023-04-26T04:50:46.103Z,8.42
2023-04-26T04:55:46.076Z,9.20
2023-04-26T05:00:45.975Z,9.57
2023-04-26T05:05:45.983Z,9.48
2023-04-26T05:10:45.850Z,9.70
2023-04-26T05:15:48.824Z,9.56
2023-04-26T05:20:45.798Z,10.59
2023-04-26T05:25:45.814Z,10.70
2023-04-26T05:30:45.575Z,10.78
2023-04-26T05:35:45.549Z,11.01
2023-04-26T05:40:45.523Z,10.96
2023-04-26T05:45:45.518Z,12.24
2023-04-26T05:50:45.453Z,12.99
2023-04-26T05:55:45.365Z,13.30
2023-04-26T06:00:45.174Z,13.67
2023-04-26T06:05:45.209Z,12.71
2023-04-26T06:10:45.147Z,12.41
2023-04-26T06:15:48.040Z,12.21
2023-04-26T06:20:44.967Z,13.11
2023-04-26T06:25:45.007Z,12.96
2023-04-26T06:30:44.883Z,10.88
2023-04-26T06:35:44.774Z,10.81
2023-04-26T06:40:44.669Z,12.11
2023-04-26T06:45:45.726Z,14.43
2023-04-26T06:50:44.603Z,14.71
2023-04-26T06:55:44.573Z,14.83
2023-04-26T07:00:44.446Z,13.06
2023-04-26T07:05:44.583Z,12.62
2023-04-26T07:10:44.266Z,12.15
2023-04-26T07:15:47.443Z,11.85
2023-04-26T07:20:44.170Z,12.95
2023-04-26T07:25:44.111Z,14.20
2023-04-26T07:30:44.013Z,14.16
2023-04-26T07:35:43.992Z,13.46
2023-04-26T07:40:44.082Z,14.09
2023-04-26T07:45:43.922Z,12.88
2023-04-26T07:50:43.847Z,12.30
2023-04-26T07:55:43.787Z,10.98
2023-04-26T08:00:43.669Z,10.43
2023-04-26T08:05:44.132Z,9.24
2023-04-26T08:10:43.453Z,10.74
2023-04-26T08:15:46.589Z,9.61
2023-04-26T08:20:43.345Z,10.21
2023-04-26T08:25:43.289Z,11.43
2023-04-26T08:30:43.245Z,10.74
2023-04-26T08:35:43.200Z,10.70
2023-04-26T08:40:43.058Z,9.76
2023-04-26T08:45:43.213Z,10.44
2023-04-26T08:50:42.949Z,11.32
2023-04-26T08:55:43.029Z,9.71
2023-04-26T09:00:42.815Z,9.83
2023-04-26T09:05:43.044Z,10.60
2023-04-26T09:10:42.783Z,11.20
2023-04-26T09:15:46.260Z,10.42
2023-04-26T09:20:42.560Z,10.86
2023-04-26T09:25:42.517Z,11.99
2023-04-26T09:30:42.409Z,10.63
2023-04-26T09:35:42.449Z,11.27
2023-04-26T09:40:42.328Z,10.51
2023-04-26T09:45:42.372Z,10.33
2023-04-26T09:50:42.148Z,9.91
2023-04-26T09:55:42.177Z,9.75
2023-04-26T10:00:42.160Z,9.75
2023-04-26T10:05:42.178Z,10.42
2023-04-26T10:10:41.854Z,11.34
2023-04-26T10:15:44.841Z,11.72
2023-04-26T10:20:41.788Z,12.75
2023-04-26T10:25:41.766Z,12.95
2023-04-26T10:30:41.590Z,11.75
2023-04-26T10:35:41.615Z,10.78
2023-04-26T10:40:41.538Z,10.92
2023-04-26T10:45:41.529Z,11.59
2023-04-26T10:50:41.350Z,12.59
2023-04-26T10:55:41.428Z,13.74
2023-04-26T11:00:41.273Z,12.12
2023-04-26T11:05:41.201Z,13.00
2023-04-26T11:10:41.189Z,11.56
2023-04-26T11:15:44.205Z,12.09
2023-04-26T11:20:41.005Z,12.37
2023-04-26T11:25:40.912Z,12.05
2023-04-26T11:30:40.908Z,12.15
2023-04-26T11:35:40.969Z,11.16
2023-04-26T11:40:40.810Z,12.79
2023-04-26T11:45:40.646Z,12.78
2023-04-26T11:50:40.579Z,12.64
2023-04-26T11:55:40.714Z,12.09
2023-04-26T12:00:40.569Z,11.93
2023-04-26T12:05:40.507Z,11.94
2023-04-26T12:10:40.389Z,12.02
2023-04-26T12:15:43.400Z,12.12
2023-04-26T12:20:40.279Z,12.51
2023-04-26T12:25:40.269Z,13.33
2023-04-26T12:30:40.080Z,12.89
2023-04-26T12:35:40.087Z,12.26
2023-04-26T12:40:39.911Z,12.27
2023-04-26T12:45:40.015Z,12.82
2023-04-26T12:50:39.854Z,12.85
2023-04-26T12:55:39.835Z,13.15
2023-04-26T13:00:39.631Z,13.09
2023-04-26T13:05:39.897Z,12.87
2023-04-26T13:10:39.543Z,12.51
2023-04-26T13:15:42.513Z,13.40
2023-04-26T13:20:39.393Z,12.62
2023-04-26T13:25:39.438Z,13.15
2023-04-26T13:30:39.269Z,13.04
2023-04-26T13:35:39.272Z,13.51
2023-04-26T13:40:39.165Z,12.49
2023-04-26T13:45:39.202Z,12.29
2023-04-26T13:50:39.135Z,13.00
2023-04-26T13:55:39.036Z,13.54
2023-04-26T14:00:38.905Z,13.15
2023-04-26T14:05:39.207Z,12.79
2023-04-26T14:10:38.784Z,13.21
2023-04-26T14:15:41.795Z,13.55
2023-04-26T14:20:38.865Z,12.31
2023-04-26T14:25:38.584Z,12.81
2023-04-26T14:30:38.718Z,12.54
2023-04-26T14:35:38.653Z,12.97
2023-04-26T14:40:38.349Z,14.19
2023-04-26T14:50:38.320Z,12.79
2023-04-26T14:55:38.299Z,12.60
2023-04-26T15:00:38.082Z,13.32
2023-04-26T15:05:38.129Z,13.21
2023-04-26T15:10:37.951Z,13.00
2023-04-26T15:15:40.932Z,12.29
2023-04-26T15:20:38.033Z,12.39
2023-04-26T15:25:37.759Z,12.16
2023-04-26T15:30:37.690Z,12.52
2023-04-26T15:35:37.957Z,12.78
2023-04-26T15:40:38.347Z,12.41
2023-04-26T15:45:37.524Z,12.87
2023-04-26T15:50:37.639Z,13.15
2023-04-26T15:55:37.457Z,12.92
2023-04-26T16:10:05.332Z,12.15
2023-04-26T16:15:04.972Z,12.62
2023-04-26T16:20:04.936Z,12.19
2023-04-26T16:25:05.303Z,12.57
2023-04-26T16:30:04.805Z,12.84
2023-04-26T16:35:04.731Z,13.06
2023-04-26T16:40:06.579Z,12.66
2023-04-26T16:45:04.593Z,12.48
2023-04-26T16:50:04.670Z,12.31
2023-04-26T16:55:04.445Z,11.71
2023-04-26T17:00:07.441Z,11.52
2023-04-26T17:05:04.413Z,10.96
2023-04-26T17:10:04.310Z,11.74
2023-04-26T17:15:04.857Z,11.17
2023-04-26T17:20:04.183Z,11.11
2023-04-26T17:25:03.991Z,11.21
2023-04-26T17:30:04.068Z,11.16
2023-04-26T17:35:04.181Z,11.17
2023-04-26T17:40:04.019Z,10.78
2023-04-26T17:45:03.816Z,10.83
2023-04-26T17:50:03.721Z,10.59
2023-04-26T17:55:03.606Z,10.55
2023-04-26T18:00:06.817Z,10.52
2023-04-26T18:05:03.622Z,10.07
2023-04-26T18:10:03.438Z,9.82
2023-04-26T18:15:03.402Z,9.27
2023-04-26T18:20:03.399Z,8.90
2023-04-26T18:25:03.251Z,8.58
2023-04-26T18:30:03.331Z,8.35
2023-04-26T18:35:03.171Z,8.22
2023-04-26T18:40:03.252Z,8.21
2023-04-26T18:45:02.984Z,8.15
2023-04-26T18:50:10.429Z,8.21
2023-04-26T18:55:03.054Z,8.04
2023-04-26T19:00:06.010Z,8.08
2023-04-26T19:05:02.963Z,7.92
2023-04-26T19:10:02.870Z,7.81
2023-04-26T19:15:03.152Z,7.87
2023-04-26T19:20:02.870Z,7.63
2023-04-26T19:25:02.495Z,7.45
2023-04-26T19:30:02.562Z,7.31
2023-04-26T19:35:02.483Z,7.22
2023-04-26T19:40:02.458Z,7.15
2023-04-26T19:45:02.570Z,7.07
2023-04-26T19:50:02.376Z,7.04
2023-04-26T19:55:02.231Z,6.84
2023-04-26T20:00:05.002Z,6.76
2023-04-26T20:05:02.062Z,6.35
2023-04-26T20:10:02.081Z,6.19
2023-04-26T20:15:02.107Z,5.95
2023-04-26T20:20:01.854Z,5.34
2023-04-26T20:25:02.052Z,4.89
2023-04-26T20:30:01.757Z,5.14
2023-04-26T20:35:01.569Z,5.34
2023-04-26T20:40:01.561Z,4.83
2023-04-26T20:45:02.438Z,4.54
2023-04-26T20:50:01.374Z,4.75
2023-04-26T20:55:01.295Z,4.58
2023-04-26T21:00:04.218Z,4.33
2023-04-26T21:05:01.191Z,4.33
2023-04-26T21:10:01.254Z,4.12
2023-04-26T21:15:01.194Z,3.88
2023-04-26T21:20:01.061Z,4.12
2023-04-26T21:25:08.824Z,4.28
2023-04-26T21:30:00.816Z,4.40
2023-04-26T21:35:01.385Z,4.24
2023-04-26T21:40:00.967Z,4.29
2023-04-26T21:45:01.515Z,4.43
2023-04-26T21:50:00.693Z,4.59
2023-04-26T21:55:00.559Z,4.79
2023-04-26T22:00:03.511Z,4.47
2023-04-26T22:05:00.514Z,4.54
2023-04-26T22:10:01.227Z,4.40
2023-04-26T22:15:00.290Z,4.46
2023-04-26T22:20:00.235Z,4.55
2023-04-26T22:25:00.232Z,4.46
2023-04-26T22:30:06.242Z,4.72
2023-04-26T22:35:01.379Z,4.59
2023-04-26T22:39:59.980Z,4.79
2023-04-26T22:44:59.947Z,4.25
2023-04-26T22:49:59.843Z,4.16
2023-04-26T22:55:00.071Z,4.33
2023-04-26T23:00:02.721Z,4.50
2023-04-26T23:05:20.813Z,4.44
2023-04-26T23:09:59.653Z,4.51
2023-04-26T23:14:59.473Z,4.40
2023-04-26T23:19:59.426Z,4.55
2023-04-26T23:24:59.403Z,4.44
2023-04-26T23:29:59.263Z,4.18
2023-04-26T23:34:59.404Z,4.15
2023-04-26T23:39:59.126Z,3.88
2023-04-26T23:44:59.236Z,3.72
2023-04-26T23:49:59.255Z,3.80
2023-04-26T23:59:45.021Z,3.40
